x

Eel River - 17nm Wsw Of Eureka, Ca (46022) Wave Buoy

7:50pm - Wed 28th Jun 2017 All times are PDT. -7 hours from GMT.

  • Sig Wave height 6.6ft
  • Swell Direction
  • Peak Period 7s
  • Average Period 6s
  • Wind
    13mph, 16mph gusts
  • Sea Temp 54°f
  • Air Temp 56°f
  • Sea Pressure 1016.7mb
  • Eel River - 17nm Wsw Of Eureka, Ca
  • Eel River - 17nm Wsw Of Eureka, Ca

More Historic Weather Station data

Upgrade to MSW Pro to gain access to the past 30 days of data for over 8000 Wavebouys and Weather Stations around the globe.

Join Pro

Comparision Forecast

View Surf forecast
   
Wed 06/28 7:50pm 6.5ft 7s 6s 13 16 mph 1016.7mb 54f 56f
6:50pm 5.5ft 8s 6s 13 16 mph 1016.7mb 54f 56f
5:50pm 6ft 8s 6s 13 18 mph 1016.6mb 54f 56f
4:50pm 6ft 8s 6s 13 16 mph 1016.7mb 54f 56f
3:50pm 6ft 8s 6s 11 13 mph 1016.5mb 53f 55f
2:50pm 6.5ft 8s 6s 9 11 mph 1016.7mb 53f 55f
1:50pm 6.5ft 8s 6s 13 16 mph 1016.5mb 53f 54f
12:50pm 7ft 8s 6s 20 25 mph 1016.4mb 53f 55f
10:50am 7ft 8s 6s 13 16 mph 1016.5mb 53f 54f
9:50am 6.5ft 8s 6s 16 18 mph 1016.2mb 53f 54f
8:50am 6ft 8s 6s 20 25 mph 1015.7mb 53f 54f
7:50am 7ft 8s 6s 18 22 mph 1015.5mb 53f 54f
6:50am 6.5ft 8s 6s 22 27 mph 1015mb 53f 54f
5:50am 7.5ft 8s 6s 22 29 mph 1014.6mb 54f 54f
4:50am 6.5ft 7s 5s 22 29 mph 1014.3mb 54f 54f
3:50am 6ft 8s 6s 18 22 mph 1014.5mb 54f 55f
2:50am 6ft 7s 6s 16 22 mph 1014.9mb 54f 55f
1:50am 6ft 7s 6s 16 20 mph 1015.3mb 54f 55f
12:50am 6ft 8s 6s 11 13 mph 1015.8mb 54f 55f
Tue 06/27 11:50pm 6ft 8s 6s 11 13 mph 1016.2mb 54f 55f
10:50pm 6ft 8s 6s 13 16 mph 1016.4mb 54f 55f
9:50pm 6ft 8s 6s 13 16 mph 1016.3mb 54f 55f
8:50pm 6ft 8s 6s 16 18 mph 1015.9mb 54f 56f
7:50pm 6.5ft 8s 6s 18 20 mph 1015.8mb 55f 56f
6:50pm 6ft 8s 6s 18 22 mph 1015.4mb 54f 56f
5:50pm 6ft 8s 6s 18 22 mph 1015.6mb 55f 56f
4:50pm 5ft 8s 6s 18 22 mph 1015.8mb 55f 56f
3:50pm 5.5ft 9s 6s 18 20 mph 1016.4mb 55f 56f
2:50pm 4.5ft 10s 6s 16 18 mph 1016.5mb 55f 56f
1:50pm 4.5ft 8s 7s 11 13 mph 1016.9mb 55f 56f
12:50pm 4.5ft 9s 7s 9 11 mph 1016.6mb 55f 56f
11:50am 4.5ft 9s 7s 9 11 mph 1016.6mb 55f 57f
10:50am 4.5ft 9s 7s 9 9 mph 1016.6mb 54f 56f
9:50am 4.5ft 10s 7s 11 11 mph 1016.6mb 54f 56f
8:50am 4.5ft 8s 7s 11 13 mph 1016.5mb 54f 56f
7:50am 4.5ft 8s 7s 11 13 mph 1016.5mb 54f 55f
6:50am 4.5ft 8s 7s 11 11 mph 1016.4mb 54f 56f
5:50am 4.5ft 8s 7s 9 11 mph 1016.1mb 55f 55f
4:50am 4ft 9s 7s 11 11 mph 1016.2mb 55f 56f
3:50am 3.5ft 9s 8s 11 13 mph 1016.1mb 55f 56f
2:50am 4.5ft 9s 8s 9 9 mph 1016mb 56f 56f
1:50am 3.5ft 9s 8s 7 9 mph 1016.4mb 56f 56f
12:50am 4ft 8s 8s 7 9 mph 1016.8mb 55f 56f
Mon 06/26 11:50pm 4ft 9s 8s 9 11 mph 1017mb 56f 57f
10:50pm 4.5ft 9s 8s 7 9 mph 1017.2mb 57f 57f
9:50pm 4.5ft 9s 8s 4 7 mph 1017.1mb 57f 57f
8:50pm 5ft 9s 8s 2 4 mph 1017.1mb 56f 56f
7:50pm 4.5ft 10s 8s 2 2 mph 1017.3mb 57f 58f
6:50pm 4.5ft 10s 8s  -  2 mph 1017.4mb 57f 60f
5:50pm 5ft 10s 8s 2 2 mph 1017.5mb 57f 60f
4:50pm 4.5ft 10s 8s 4 7 mph 1017.7mb 57f 59f
3:50pm 4.5ft 10s 8s 7 7 mph 1017.9mb 57f 58f
2:50pm 4ft 10s 9s 7 9 mph 1017.7mb 57f 58f
1:50pm 3.5ft 14s 9s 7 7 mph 1017.6mb 57f 57f
12:50pm 4ft 11s 9s 7 9 mph 1017.6mb 57f 56f
11:50am 3.5ft 15s 9s 4 7 mph 1017.7mb 56f 58f
10:50am 3.5ft 16s 9s 2 4 mph 1017.6mb 56f 57f
9:50am 3.5ft 15s 9s 2 4 mph 1017.5mb 56f 56f
8:50am 3.5ft 15s 8s 4 7 mph 1017.1mb 56f 56f
7:50am 3ft 16s 8s 9 9 mph 1016.7mb 56f 56f
5:50am 3.5ft 14s 8s 7 7 mph 1016.5mb 56f 55f
4:50am 2.5ft 14s 8s 7 7 mph 1016.2mb 56f 55f
3:50am 2.5ft 14s 8s 7 7 mph 1015.9mb 56f 56f
2:50am 2.5ft 14s 8s 4 7 mph 1015.8mb 56f 56f
1:50am 2.5ft 14s 8s 4 4 mph 1015.9mb 56f 56f
12:50am 2.5ft 15s 9s  -  2 mph 1016.2mb 56f 56f
Sun 06/25 11:50pm 2.5ft 13s 8s 2 2 mph 1016.1mb 56f 56f
10:50pm 3ft 14s 9s  -  0 mph 1016mb 56f 56f
9:50pm 2.5ft 14s 8s 2 2 mph 1016.1mb 56f 56f
8:50pm 3ft 14s 8s 4 4 mph 1016.2mb 56f 56f
7:50pm 2.5ft 15s 7s 2 4 mph 1016.3mb 56f 56f
6:50pm 2.5ft 16s 7s 4 7 mph 1016.2mb 56f 56f
5:50pm 3ft 15s 7s 4 7 mph 1016.1mb 56f 56f
4:50pm 2.5ft 14s 7s 7 9 mph 1016.1mb 56f 56f
3:50pm 2.5ft 14s 6s 7 9 mph 1016.4mb 56f 56f
2:50pm 3ft 15s 7s 9 9 mph 1016.6mb 56f 56f
1:50pm 2.5ft 14s 7s 11 13 mph 1016.5mb 56f 56f
12:50pm 2.5ft 14s 7s 9 11 mph 1016.6mb 56f 55f
11:50am 3ft 15s 7s 9 11 mph 1016.3mb 55f 55f
10:50am 3.5ft 15s 8s 11 13 mph 1015.9mb 55f 55f
9:50am 3ft 15s 7s 9 9 mph 1015.4mb 55f 55f
8:50am 3.5ft 15s 7s 7 9 mph 1015.2mb 55f 55f
7:50am 3ft 15s 7s 7 9 mph 1014.9mb 55f 55f
6:50am 3.5ft 15s 8s 7 7 mph 1014.5mb 55f 54f
5:50am 3.5ft 15s 7s 2 4 mph 1014.2mb 55f 55f
4:50am 3.5ft 15s 7s 4 7 mph 1013.9mb 55f 55f